sensor_id;sensor_type;location;lat;lon;timestamp;P1;durP1;ratioP1;P2;durP2;ratioP2
20855;SDS011;63058;49.424;8.420;2023-04-25T00:02:25;2.80;;;2.25;;
20855;SDS011;63058;49.424;8.420;2023-04-25T00:04:51;2.60;;;2.40;;
20855;SDS011;63058;49.424;8.420;2023-04-25T00:07:16;2.60;;;2.40;;
20855;SDS011;63058;49.424;8.420;2023-04-25T00:09:42;2.80;;;2.25;;
20855;SDS011;63058;49.424;8.420;2023-04-25T00:12:08;2.35;;;2.08;;
20855;SDS011;63058;49.424;8.420;2023-04-25T00:14:34;3.25;;;2.70;;
20855;SDS011;63058;49.424;8.420;2023-04-25T00:17:00;2.58;;;2.10;;
20855;SDS011;63058;49.424;8.420;2023-04-25T00:19:27;2.80;;;2.30;;
20855;SDS011;63058;49.424;8.420;2023-04-25T00:21:54;2.22;;;2.00;;
20855;SDS011;63058;49.424;8.420;2023-04-25T00:24:20;2.67;;;2.38;;
20855;SDS011;63058;49.424;8.420;2023-04-25T00:26:45;2.78;;;2.22;;
20855;SDS011;63058;49.424;8.420;2023-04-25T00:29:11;2.50;;;2.30;;
20855;SDS011;63058;49.424;8.420;2023-04-25T00:31:37;2.17;;;1.80;;
20855;SDS011;63058;49.424;8.420;2023-04-25T00:34:03;2.45;;;1.85;;
20855;SDS011;63058;49.424;8.420;2023-04-25T00:36:28;1.88;;;1.75;;
20855;SDS011;63058;49.424;8.420;2023-04-25T00:38:54;2.95;;;1.90;;
20855;SDS011;63058;49.424;8.420;2023-04-25T00:41:20;1.80;;;1.50;;
20855;SDS011;63058;49.424;8.420;2023-04-25T00:43:47;2.17;;;1.58;;
20855;SDS011;63058;49.424;8.420;2023-04-25T00:46:13;2.72;;;2.00;;
20855;SDS011;63058;49.424;8.420;2023-04-25T00:48:39;1.85;;;1.70;;
20855;SDS011;63058;49.424;8.420;2023-04-25T00:51:04;1.50;;;1.40;;
20855;SDS011;63058;49.424;8.420;2023-04-25T00:53:31;2.50;;;1.95;;
20855;SDS011;63058;49.424;8.420;2023-04-25T00:55:57;2.15;;;1.95;;
20855;SDS011;63058;49.424;8.420;2023-04-25T00:58:23;1.70;;;1.60;;
20855;SDS011;63058;49.424;8.420;2023-04-25T01:00:50;1.75;;;1.65;;
20855;SDS011;63058;49.424;8.420;2023-04-25T01:03:17;2.28;;;2.08;;
20855;SDS011;63058;49.424;8.420;2023-04-25T01:05:45;1.88;;;1.67;;
20855;SDS011;63058;49.424;8.420;2023-04-25T01:08:12;2.72;;;1.75;;
20855;SDS011;63058;49.424;8.420;2023-04-25T01:10:38;2.38;;;1.92;;
20855;SDS011;63058;49.424;8.420;2023-04-25T01:13:04;1.80;;;1.70;;
20855;SDS011;63058;49.424;8.420;2023-04-25T01:15:30;2.17;;;1.90;;
20855;SDS011;63058;49.424;8.420;2023-04-25T01:17:56;2.40;;;2.13;;
20855;SDS011;63058;49.424;8.420;2023-04-25T01:20:23;2.20;;;2.00;;
20855;SDS011;63058;49.424;8.420;2023-04-25T01:22:50;2.20;;;2.00;;
20855;SDS011;63058;49.424;8.420;2023-04-25T01:25:17;2.30;;;2.10;;
20855;SDS011;63058;49.424;8.420;2023-04-25T01:27:44;2.75;;;2.25;;
20855;SDS011;63058;49.424;8.420;2023-04-25T01:30:10;2.20;;;1.90;;
20855;SDS011;63058;49.424;8.420;2023-04-25T01:32:36;2.55;;;1.90;;
20855;SDS011;63058;49.424;8.420;2023-04-25T01:35:05;2.08;;;1.70;;
20855;SDS011;63058;49.424;8.420;2023-04-25T01:37:38;2.95;;;2.00;;
20855;SDS011;63058;49.424;8.420;2023-04-25T01:40:05;2.30;;;2.10;;
20855;SDS011;63058;49.424;8.420;2023-04-25T01:42:32;1.80;;;1.70;;
20855;SDS011;63058;49.424;8.420;2023-04-25T01:44:59;3.17;;;2.17;;
20855;SDS011;63058;49.424;8.420;2023-04-25T01:47:25;2.80;;;2.50;;
20855;SDS011;63058;49.424;8.420;2023-04-25T01:49:50;2.33;;;2.00;;
20855;SDS011;63058;49.424;8.420;2023-04-25T01:52:16;4.72;;;2.90;;
20855;SDS011;63058;49.424;8.420;2023-04-25T01:54:42;3.30;;;3.00;;
20855;SDS011;63058;49.424;8.420;2023-04-25T01:57:10;3.53;;;3.22;;
20855;SDS011;63058;49.424;8.420;2023-04-25T01:59:36;4.00;;;3.47;;
20855;SDS011;63058;49.424;8.420;2023-04-25T02:02:02;4.95;;;4.18;;
20855;SDS011;63058;49.424;8.420;2023-04-25T02:04:31;4.63;;;4.10;;
20855;SDS011;63058;49.424;8.420;2023-04-25T02:06:57;5.35;;;4.65;;
20855;SDS011;63058;49.424;8.420;2023-04-25T02:09:23;5.60;;;4.43;;
20855;SDS011;63058;49.424;8.420;2023-04-25T02:11:48;5.75;;;4.75;;
20855;SDS011;63058;49.424;8.420;2023-04-25T02:14:14;5.85;;;4.60;;
20855;SDS011;63058;49.424;8.420;2023-04-25T02:16:40;5.53;;;4.18;;
20855;SDS011;63058;49.424;8.420;2023-04-25T02:19:05;5.72;;;5.00;;
20855;SDS011;63058;49.424;8.420;2023-04-25T02:21:31;4.80;;;4.28;;
20855;SDS011;63058;49.424;8.420;2023-04-25T02:23:57;6.13;;;4.57;;
20855;SDS011;63058;49.424;8.420;2023-04-25T02:26:23;6.25;;;5.13;;
20855;SDS011;63058;49.424;8.420;2023-04-25T02:28:49;6.03;;;5.30;;
20855;SDS011;63058;49.424;8.420;2023-04-25T02:31:16;7.35;;;5.10;;
20855;SDS011;63058;49.424;8.420;2023-04-25T02:33:41;5.60;;;4.80;;
20855;SDS011;63058;49.424;8.420;2023-04-25T02:36:07;6.32;;;5.30;;
20855;SDS011;63058;49.424;8.420;2023-04-25T02:38:33;5.53;;;5.03;;
20855;SDS011;63058;49.424;8.420;2023-04-25T02:40:59;5.80;;;4.95;;
20855;SDS011;63058;49.424;8.420;2023-04-25T02:43:25;5.88;;;5.28;;
20855;SDS011;63058;49.424;8.420;2023-04-25T02:45:50;6.38;;;5.38;;
20855;SDS011;63058;49.424;8.420;2023-04-25T02:48:16;6.07;;;5.47;;
20855;SDS011;63058;49.424;8.420;2023-04-25T02:50:42;6.00;;;5.10;;
20855;SDS011;63058;49.424;8.420;2023-04-25T02:53:08;7.38;;;5.03;;
20855;SDS011;63058;49.424;8.420;2023-04-25T02:55:33;5.63;;;4.90;;
20855;SDS011;63058;49.424;8.420;2023-04-25T02:57:59;5.45;;;4.88;;
20855;SDS011;63058;49.424;8.420;2023-04-25T03:00:25;5.60;;;4.70;;
20855;SDS011;63058;49.424;8.420;2023-04-25T03:02:51;4.80;;;4.32;;
20855;SDS011;63058;49.424;8.420;2023-04-25T03:05:16;5.70;;;5.13;;
20855;SDS011;63058;49.424;8.420;2023-04-25T03:07:42;6.40;;;5.03;;
20855;SDS011;63058;49.424;8.420;2023-04-25T03:10:09;5.25;;;4.43;;
20855;SDS011;63058;49.424;8.420;2023-04-25T03:12:35;5.57;;;4.75;;
20855;SDS011;63058;49.424;8.420;2023-04-25T03:15:01;5.05;;;4.55;;
20855;SDS011;63058;49.424;8.420;2023-04-25T03:17:27;4.95;;;4.45;;
20855;SDS011;63058;49.424;8.420;2023-04-25T03:19:53;5.20;;;4.68;;
20855;SDS011;63058;49.424;8.420;2023-04-25T03:22:18;5.22;;;4.70;;
20855;SDS011;63058;49.424;8.420;2023-04-25T03:24:44;4.85;;;4.43;;
20855;SDS011;63058;49.424;8.420;2023-04-25T03:27:10;5.60;;;4.22;;
20855;SDS011;63058;49.424;8.420;2023-04-25T03:29:35;4.97;;;4.47;;
20855;SDS011;63058;49.424;8.420;2023-04-25T03:32:01;5.70;;;4.15;;
20855;SDS011;63058;49.424;8.420;2023-04-25T03:34:27;4.10;;;3.70;;
20855;SDS011;63058;49.424;8.420;2023-04-25T03:36:53;4.97;;;4.47;;
20855;SDS011;63058;49.424;8.420;2023-04-25T03:39:18;4.30;;;3.90;;
20855;SDS011;63058;49.424;8.420;2023-04-25T03:41:44;4.45;;;4.05;;
20855;SDS011;63058;49.424;8.420;2023-04-25T03:44:09;5.35;;;4.85;;
20855;SDS011;63058;49.424;8.420;2023-04-25T03:46:35;6.25;;;5.05;;
20855;SDS011;63058;49.424;8.420;2023-04-25T03:49:01;5.80;;;5.03;;
20855;SDS011;63058;49.424;8.420;2023-04-25T03:51:26;4.75;;;4.28;;
20855;SDS011;63058;49.424;8.420;2023-04-25T03:53:52;5.10;;;4.47;;
20855;SDS011;63058;49.424;8.420;2023-04-25T03:56:18;5.10;;;4.47;;
20855;SDS011;63058;49.424;8.420;2023-04-25T03:58:43;5.32;;;4.80;;
20855;SDS011;63058;49.424;8.420;2023-04-25T04:01:09;5.57;;;4.65;;
20855;SDS011;63058;49.424;8.420;2023-04-25T04:03:36;5.20;;;4.70;;
20855;SDS011;63058;49.424;8.420;2023-04-25T04:06:03;5.60;;;4.28;;
20855;SDS011;63058;49.424;8.420;2023-04-25T04:08:30;5.38;;;4.40;;
20855;SDS011;63058;49.424;8.420;2023-04-25T04:10:57;4.47;;;4.05;;
20855;SDS011;63058;49.424;8.420;2023-04-25T04:13:25;5.93;;;4.60;;
20855;SDS011;63058;49.424;8.420;2023-04-25T04:15:51;4.80;;;3.95;;
20855;SDS011;63058;49.424;8.420;2023-04-25T04:18:17;5.13;;;4.40;;
20855;SDS011;63058;49.424;8.420;2023-04-25T04:20:43;4.30;;;3.83;;
20855;SDS011;63058;49.424;8.420;2023-04-25T04:23:08;5.45;;;4.90;;
20855;SDS011;63058;49.424;8.420;2023-04-25T04:25:34;5.65;;;4.57;;
20855;SDS011;63058;49.424;8.420;2023-04-25T04:28:00;5.57;;;4.50;;
20855;SDS011;63058;49.424;8.420;2023-04-25T04:30:26;4.78;;;4.25;;
20855;SDS011;63058;49.424;8.420;2023-04-25T04:32:56;4.80;;;4.32;;
20855;SDS011;63058;49.424;8.420;2023-04-25T04:35:22;5.60;;;4.32;;
20855;SDS011;63058;49.424;8.420;2023-04-25T04:37:48;4.55;;;3.95;;
20855;SDS011;63058;49.424;8.420;2023-04-25T04:40:14;3.80;;;3.50;;
20855;SDS011;63058;49.424;8.420;2023-04-25T04:42:41;4.18;;;3.78;;
20855;SDS011;63058;49.424;8.420;2023-04-25T04:45:07;4.20;;;3.80;;
20855;SDS011;63058;49.424;8.420;2023-04-25T04:47:33;4.47;;;3.80;;
20855;SDS011;63058;49.424;8.420;2023-04-25T04:50:01;4.10;;;3.70;;
20855;SDS011;63058;49.424;8.420;2023-04-25T04:52:28;4.88;;;4.38;;
20855;SDS011;63058;49.424;8.420;2023-04-25T04:54:54;5.22;;;4.55;;
20855;SDS011;63058;49.424;8.420;2023-04-25T04:57:20;5.50;;;4.80;;
20855;SDS011;63058;49.424;8.420;2023-04-25T04:59:47;4.47;;;4.07;;
20855;SDS011;63058;49.424;8.420;2023-04-25T05:02:12;4.80;;;4.30;;
20855;SDS011;63058;49.424;8.420;2023-04-25T05:04:38;5.45;;;4.70;;
20855;SDS011;63058;49.424;8.420;2023-04-25T05:07:04;5.65;;;5.05;;
20855;SDS011;63058;49.424;8.420;2023-04-25T05:09:30;6.20;;;5.30;;
20855;SDS011;63058;49.424;8.420;2023-04-25T05:11:55;5.50;;;4.80;;
20855;SDS011;63058;49.424;8.420;2023-04-25T05:14:21;5.60;;;5.05;;
20855;SDS011;63058;49.424;8.420;2023-04-25T05:16:48;5.47;;;4.82;;
20855;SDS011;63058;49.424;8.420;2023-04-25T05:19:13;5.45;;;4.78;;
20855;SDS011;63058;49.424;8.420;2023-04-25T05:21:39;4.95;;;4.15;;
20855;SDS011;63058;49.424;8.420;2023-04-25T05:24:05;5.22;;;4.65;;
20855;SDS011;63058;49.424;8.420;2023-04-25T05:26:31;4.68;;;4.28;;
20855;SDS011;63058;49.424;8.420;2023-04-25T05:28:57;5.75;;;5.07;;
20855;SDS011;63058;49.424;8.420;2023-04-25T05:31:23;5.47;;;4.93;;
20855;SDS011;63058;49.424;8.420;2023-04-25T05:33:48;5.10;;;4.55;;
20855;SDS011;63058;49.424;8.420;2023-04-25T05:36:14;5.75;;;5.15;;
20855;SDS011;63058;49.424;8.420;2023-04-25T05:38:39;5.07;;;4.57;;
20855;SDS011;63058;49.424;8.420;2023-04-25T05:43:40;5.82;;;5.05;;
20855;SDS011;63058;49.424;8.420;2023-04-25T05:46:12;5.28;;;4.78;;
20855;SDS011;63058;49.424;8.420;2023-04-25T05:48:38;6.43;;;5.72;;
20855;SDS011;63058;49.424;8.420;2023-04-25T05:51:04;7.15;;;5.78;;
20855;SDS011;63058;49.424;8.420;2023-04-25T05:53:29;6.88;;;5.28;;
20855;SDS011;63058;49.424;8.420;2023-04-25T05:55:55;5.97;;;4.88;;
20855;SDS011;63058;49.424;8.420;2023-04-25T05:58:21;7.55;;;6.65;;
20855;SDS011;63058;49.424;8.420;2023-04-25T06:00:46;6.95;;;6.25;;
20855;SDS011;63058;49.424;8.420;2023-04-25T06:03:12;6.03;;;5.43;;
20855;SDS011;63058;49.424;8.420;2023-04-25T06:05:41;7.20;;;6.10;;
20855;SDS011;63058;49.424;8.420;2023-04-25T06:08:07;6.38;;;5.43;;
20855;SDS011;63058;49.424;8.420;2023-04-25T06:10:32;6.32;;;5.40;;
20855;SDS011;63058;49.424;8.420;2023-04-25T06:12:58;7.22;;;6.47;;
20855;SDS011;63058;49.424;8.420;2023-04-25T06:15:24;7.97;;;6.20;;
20855;SDS011;63058;49.424;8.420;2023-04-25T06:17:49;7.93;;;6.30;;
20855;SDS011;63058;49.424;8.420;2023-04-25T06:20:15;7.05;;;6.35;;
20855;SDS011;63058;49.424;8.420;2023-04-25T06:22:41;7.30;;;6.25;;
20855;SDS011;63058;49.424;8.420;2023-04-25T06:25:06;7.30;;;6.05;;
20855;SDS011;63058;49.424;8.420;2023-04-25T06:27:33;7.72;;;6.88;;
20855;SDS011;63058;49.424;8.420;2023-04-25T06:29:59;7.80;;;7.00;;
20855;SDS011;63058;49.424;8.420;2023-04-25T06:32:24;8.70;;;6.60;;
20855;SDS011;63058;49.424;8.420;2023-04-25T06:34:52;7.05;;;6.20;;
20855;SDS011;63058;49.424;8.420;2023-04-25T06:37:18;7.78;;;6.97;;
20855;SDS011;63058;49.424;8.420;2023-04-25T06:39:43;8.60;;;6.85;;
20855;SDS011;63058;49.424;8.420;2023-04-25T06:42:09;7.15;;;6.45;;
20855;SDS011;63058;49.424;8.420;2023-04-25T06:44:35;7.50;;;5.88;;
20855;SDS011;63058;49.424;8.420;2023-04-25T06:47:00;8.50;;;6.22;;
20855;SDS011;63058;49.424;8.420;2023-04-25T06:49:26;8.75;;;7.18;;
20855;SDS011;63058;49.424;8.420;2023-04-25T06:51:52;12.65;;;10.27;;
20855;SDS011;63058;49.424;8.420;2023-04-25T06:54:17;9.90;;;8.50;;
20855;SDS011;63058;49.424;8.420;2023-04-25T06:56:43;9.18;;;7.88;;
20855;SDS011;63058;49.424;8.420;2023-04-25T06:59:08;8.43;;;6.78;;
20855;SDS011;63058;49.424;8.420;2023-04-25T07:01:34;10.15;;;8.02;;
20855;SDS011;63058;49.424;8.420;2023-04-25T07:04:00;11.85;;;8.93;;
20855;SDS011;63058;49.424;8.420;2023-04-25T07:06:26;13.35;;;7.80;;
20855;SDS011;63058;49.424;8.420;2023-04-25T07:08:52;10.82;;;7.55;;
20855;SDS011;63058;49.424;8.420;2023-04-25T07:11:18;8.77;;;6.90;;
20855;SDS011;63058;49.424;8.420;2023-04-25T07:13:44;9.05;;;6.10;;
20855;SDS011;63058;49.424;8.420;2023-04-25T07:16:10;9.70;;;6.32;;
20855;SDS011;63058;49.424;8.420;2023-04-25T07:18:35;6.78;;;5.28;;
20855;SDS011;63058;49.424;8.420;2023-04-25T07:21:01;7.30;;;5.57;;
20855;SDS011;63058;49.424;8.420;2023-04-25T07:23:27;10.35;;;6.50;;
20855;SDS011;63058;49.424;8.420;2023-04-25T07:25:52;10.32;;;7.40;;
20855;SDS011;63058;49.424;8.420;2023-04-25T07:28:18;10.20;;;6.72;;
20855;SDS011;63058;49.424;8.420;2023-04-25T07:30:43;9.45;;;6.20;;
20855;SDS011;63058;49.424;8.420;2023-04-25T07:33:09;9.35;;;6.80;;
20855;SDS011;63058;49.424;8.420;2023-04-25T07:35:35;8.55;;;6.60;;
20855;SDS011;63058;49.424;8.420;2023-04-25T07:38:01;8.68;;;5.97;;
20855;SDS011;63058;49.424;8.420;2023-04-25T07:40:28;12.93;;;6.90;;
20855;SDS011;63058;49.424;8.420;2023-04-25T07:42:53;10.63;;;6.38;;
20855;SDS011;63058;49.424;8.420;2023-04-25T07:45:19;9.75;;;5.90;;
20855;SDS011;63058;49.424;8.420;2023-04-25T07:47:45;9.90;;;5.68;;
20855;SDS011;63058;49.424;8.420;2023-04-25T07:50:10;7.55;;;5.32;;
20855;SDS011;63058;49.424;8.420;2023-04-25T07:52:36;9.43;;;6.13;;
20855;SDS011;63058;49.424;8.420;2023-04-25T07:55:02;10.35;;;6.07;;
20855;SDS011;63058;49.424;8.420;2023-04-25T07:57:28;11.82;;;6.63;;
20855;SDS011;63058;49.424;8.420;2023-04-25T07:59:54;12.55;;;8.23;;
20855;SDS011;63058;49.424;8.420;2023-04-25T08:02:19;9.90;;;6.80;;
20855;SDS011;63058;49.424;8.420;2023-04-25T08:04:45;11.45;;;6.45;;
20855;SDS011;63058;49.424;8.420;2023-04-25T08:07:11;11.75;;;6.38;;
20855;SDS011;63058;49.424;8.420;2023-04-25T08:09:37;14.90;;;7.93;;
20855;SDS011;63058;49.424;8.420;2023-04-25T08:12:03;16.98;;;8.65;;
20855;SDS011;63058;49.424;8.420;2023-04-25T08:14:29;11.68;;;7.85;;
20855;SDS011;63058;49.424;8.420;2023-04-25T08:17:00;21.80;;;9.77;;
20855;SDS011;63058;49.424;8.420;2023-04-25T08:19:26;13.93;;;7.75;;
20855;SDS011;63058;49.424;8.420;2023-04-25T08:21:52;17.95;;;9.80;;
20855;SDS011;63058;49.424;8.420;2023-04-25T08:24:17;17.35;;;9.13;;
20855;SDS011;63058;49.424;8.420;2023-04-25T08:26:43;12.93;;;7.63;;
20855;SDS011;63058;49.424;8.420;2023-04-25T08:29:09;12.98;;;7.75;;
20855;SDS011;63058;49.424;8.420;2023-04-25T08:31:34;11.80;;;7.13;;
20855;SDS011;63058;49.424;8.420;2023-04-25T08:34:02;14.98;;;7.80;;
20855;SDS011;63058;49.424;8.420;2023-04-25T08:36:27;12.52;;;7.32;;
20855;SDS011;63058;49.424;8.420;2023-04-25T08:38:53;15.18;;;8.30;;
20855;SDS011;63058;49.424;8.420;2023-04-25T08:41:19;17.23;;;9.70;;
20855;SDS011;63058;49.424;8.420;2023-04-25T08:43:46;10.45;;;7.18;;
20855;SDS011;63058;49.424;8.420;2023-04-25T08:46:15;10.15;;;6.38;;
20855;SDS011;63058;49.424;8.420;2023-04-25T08:48:43;16.52;;;9.07;;
20855;SDS011;63058;49.424;8.420;2023-04-25T08:51:10;10.95;;;6.60;;
20855;SDS011;63058;49.424;8.420;2023-04-25T08:53:45;14.18;;;7.80;;
20855;SDS011;63058;49.424;8.420;2023-04-25T08:56:14;14.45;;;8.23;;
20855;SDS011;63058;49.424;8.420;2023-04-25T08:58:50;15.70;;;7.45;;
20855;SDS011;63058;49.424;8.420;2023-04-25T09:01:16;11.80;;;6.47;;
20855;SDS011;63058;49.424;8.420;2023-04-25T09:03:43;10.80;;;7.18;;
20855;SDS011;63058;49.424;8.420;2023-04-25T09:06:10;13.35;;;5.97;;
20855;SDS011;63058;49.424;8.420;2023-04-25T09:08:37;9.45;;;5.50;;
20855;SDS011;63058;49.424;8.420;2023-04-25T09:11:05;10.00;;;6.40;;
20855;SDS011;63058;49.424;8.420;2023-04-25T09:13:31;6.80;;;4.93;;
20855;SDS011;63058;49.424;8.420;2023-04-25T09:15:57;10.35;;;5.13;;
20855;SDS011;63058;49.424;8.420;2023-04-25T09:18:26;9.60;;;5.55;;
20855;SDS011;63058;49.424;8.420;2023-04-25T09:20:54;10.02;;;5.82;;
20855;SDS011;63058;49.424;8.420;2023-04-25T09:23:21;16.98;;;6.28;;
20855;SDS011;63058;49.424;8.420;2023-04-25T09:25:48;10.45;;;5.60;;
20855;SDS011;63058;49.424;8.420;2023-04-25T09:28:14;10.30;;;5.55;;
20855;SDS011;63058;49.424;8.420;2023-04-25T09:30:40;11.15;;;5.47;;
20855;SDS011;63058;49.424;8.420;2023-04-25T09:35:36;11.07;;;6.07;;
20855;SDS011;63058;49.424;8.420;2023-04-25T09:38:07;7.10;;;4.60;;
20855;SDS011;63058;49.424;8.420;2023-04-25T09:40:44;10.05;;;5.32;;
20855;SDS011;63058;49.424;8.420;2023-04-25T09:43:21;8.80;;;5.22;;
20855;SDS011;63058;49.424;8.420;2023-04-25T09:45:47;9.40;;;4.55;;
20855;SDS011;63058;49.424;8.420;2023-04-25T09:48:18;7.40;;;4.57;;
20855;SDS011;63058;49.424;8.420;2023-04-25T09:50:45;9.80;;;4.15;;
20855;SDS011;63058;49.424;8.420;2023-04-25T09:53:28;5.45;;;3.92;;
20855;SDS011;63058;49.424;8.420;2023-04-25T09:55:54;6.90;;;3.80;;
20855;SDS011;63058;49.424;8.420;2023-04-25T09:58:21;6.45;;;4.10;;
20855;SDS011;63058;49.424;8.420;2023-04-25T10:00:50;7.47;;;4.47;;
20855;SDS011;63058;49.424;8.420;2023-04-25T10:03:17;8.85;;;4.80;;
20855;SDS011;63058;49.424;8.420;2023-04-25T10:05:45;8.18;;;4.40;;
20855;SDS011;63058;49.424;8.420;2023-04-25T10:08:14;8.95;;;5.40;;
20855;SDS011;63058;49.424;8.420;2023-04-25T10:10:41;14.43;;;5.30;;
20855;SDS011;63058;49.424;8.420;2023-04-25T10:13:08;8.68;;;4.38;;
20855;SDS011;63058;49.424;8.420;2023-04-25T10:15:34;12.25;;;5.30;;
20855;SDS011;63058;49.424;8.420;2023-04-25T10:18:01;8.23;;;4.90;;
20855;SDS011;63058;49.424;8.420;2023-04-25T10:20:27;7.40;;;4.70;;
20855;SDS011;63058;49.424;8.420;2023-04-25T10:22:54;8.32;;;4.28;;
20855;SDS011;63058;49.424;8.420;2023-04-25T10:25:23;6.38;;;4.47;;
20855;SDS011;63058;49.424;8.420;2023-04-25T10:27:52;8.38;;;4.70;;
20855;SDS011;63058;49.424;8.420;2023-04-25T10:30:18;8.35;;;4.63;;
20855;SDS011;63058;49.424;8.420;2023-04-25T10:32:44;6.22;;;3.92;;
20855;SDS011;63058;49.424;8.420;2023-04-25T10:35:14;6.30;;;4.15;;
20855;SDS011;63058;49.424;8.420;2023-04-25T10:40:28;6.50;;;4.03;;
20855;SDS011;63058;49.424;8.420;2023-04-25T10:42:54;6.90;;;3.83;;
20855;SDS011;63058;49.424;8.420;2023-04-25T10:45:21;9.02;;;4.28;;
20855;SDS011;63058;49.424;8.420;2023-04-25T10:47:47;9.35;;;4.03;;
20855;SDS011;63058;49.424;8.420;2023-04-25T10:50:16;6.30;;;3.55;;
20855;SDS011;63058;49.424;8.420;2023-04-25T10:52:42;7.22;;;3.95;;
20855;SDS011;63058;49.424;8.420;2023-04-25T10:55:09;6.30;;;3.92;;
20855;SDS011;63058;49.424;8.420;2023-04-25T10:57:42;7.43;;;3.60;;
20855;SDS011;63058;49.424;8.420;2023-04-25T11:00:17;6.97;;;3.50;;
20855;SDS011;63058;49.424;8.420;2023-04-25T11:05:31;4.93;;;3.63;;
20855;SDS011;63058;49.424;8.420;2023-04-25T11:07:59;5.95;;;4.10;;
20855;SDS011;63058;49.424;8.420;2023-04-25T11:10:32;3.88;;;3.33;;
20855;SDS011;63058;49.424;8.420;2023-04-25T11:13:00;6.10;;;4.60;;
20855;SDS011;63058;49.424;8.420;2023-04-25T11:15:26;4.75;;;4.00;;
20855;SDS011;63058;49.424;8.420;2023-04-25T11:17:52;6.40;;;3.78;;
20855;SDS011;63058;49.424;8.420;2023-04-25T11:20:19;9.75;;;4.78;;
20855;SDS011;63058;49.424;8.420;2023-04-25T11:22:45;9.82;;;4.82;;
20855;SDS011;63058;49.424;8.420;2023-04-25T11:25:12;5.68;;;4.10;;
20855;SDS011;63058;49.424;8.420;2023-04-25T11:30:15;5.28;;;4.10;;
20855;SDS011;63058;49.424;8.420;2023-04-25T11:32:41;9.02;;;3.85;;
20855;SDS011;63058;49.424;8.420;2023-04-25T11:35:08;5.90;;;3.50;;
20855;SDS011;63058;49.424;8.420;2023-04-25T11:37:34;6.38;;;3.90;;
20855;SDS011;63058;49.424;8.420;2023-04-25T11:40:00;6.63;;;3.78;;
20855;SDS011;63058;49.424;8.420;2023-04-25T11:42:27;5.60;;;3.38;;
20855;SDS011;63058;49.424;8.420;2023-04-25T11:44:52;8.20;;;4.00;;
20855;SDS011;63058;49.424;8.420;2023-04-25T11:47:18;6.07;;;3.63;;
20855;SDS011;63058;49.424;8.420;2023-04-25T11:49:43;4.95;;;4.00;;
20855;SDS011;63058;49.424;8.420;2023-04-25T11:52:09;5.70;;;3.30;;
20855;SDS011;63058;49.424;8.420;2023-04-25T11:54:35;6.57;;;3.28;;
20855;SDS011;63058;49.424;8.420;2023-04-25T11:57:02;6.00;;;3.33;;
20855;SDS011;63058;49.424;8.420;2023-04-25T11:59:28;7.63;;;3.60;;
20855;SDS011;63058;49.424;8.420;2023-04-25T12:01:54;6.97;;;4.60;;
20855;SDS011;63058;49.424;8.420;2023-04-25T12:04:21;4.55;;;3.40;;
20855;SDS011;63058;49.424;8.420;2023-04-25T12:06:48;7.00;;;3.70;;
20855;SDS011;63058;49.424;8.420;2023-04-25T12:09:37;7.65;;;4.80;;
20855;SDS011;63058;49.424;8.420;2023-04-25T12:12:02;5.20;;;4.43;;
20855;SDS011;63058;49.424;8.420;2023-04-25T12:14:31;6.05;;;4.05;;
20855;SDS011;63058;49.424;8.420;2023-04-25T12:16:59;6.68;;;3.80;;
20855;SDS011;63058;49.424;8.420;2023-04-25T12:19:26;5.05;;;3.92;;
20855;SDS011;63058;49.424;8.420;2023-04-25T12:21:56;5.70;;;3.20;;
20855;SDS011;63058;49.424;8.420;2023-04-25T12:24:22;5.30;;;3.22;;
20855;SDS011;63058;49.424;8.420;2023-04-25T12:29:20;4.10;;;2.95;;
20855;SDS011;63058;49.424;8.420;2023-04-25T12:31:47;4.82;;;3.13;;
20855;SDS011;63058;49.424;8.420;2023-04-25T12:34:14;3.42;;;2.40;;
20855;SDS011;63058;49.424;8.420;2023-04-25T12:36:40;5.28;;;3.65;;
20855;SDS011;63058;49.424;8.420;2023-04-25T12:39:06;3.53;;;2.58;;
20855;SDS011;63058;49.424;8.420;2023-04-25T12:41:32;3.90;;;3.13;;
20855;SDS011;63058;49.424;8.420;2023-04-25T12:43:58;5.20;;;3.05;;
20855;SDS011;63058;49.424;8.420;2023-04-25T12:46:24;5.53;;;3.15;;
20855;SDS011;63058;49.424;8.420;2023-04-25T12:48:49;3.95;;;2.88;;
20855;SDS011;63058;49.424;8.420;2023-04-25T12:51:15;6.28;;;2.97;;
20855;SDS011;63058;49.424;8.420;2023-04-25T12:53:41;5.47;;;2.95;;
20855;SDS011;63058;49.424;8.420;2023-04-25T12:56:07;4.22;;;2.85;;
20855;SDS011;63058;49.424;8.420;2023-04-25T12:58:33;5.47;;;3.40;;
20855;SDS011;63058;49.424;8.420;2023-04-25T13:00:59;5.93;;;3.55;;
20855;SDS011;63058;49.424;8.420;2023-04-25T13:03:25;8.52;;;4.13;;
20855;SDS011;63058;49.424;8.420;2023-04-25T13:05:51;5.95;;;3.30;;
20855;SDS011;63058;49.424;8.420;2023-04-25T13:08:20;5.70;;;3.63;;
20855;SDS011;63058;49.424;8.420;2023-04-25T13:10:47;7.78;;;4.00;;
20855;SDS011;63058;49.424;8.420;2023-04-25T13:13:13;7.88;;;3.85;;
20855;SDS011;63058;49.424;8.420;2023-04-25T13:15:38;7.50;;;3.67;;
20855;SDS011;63058;49.424;8.420;2023-04-25T13:18:04;5.75;;;3.90;;
20855;SDS011;63058;49.424;8.420;2023-04-25T13:20:33;6.15;;;3.25;;
20855;SDS011;63058;49.424;8.420;2023-04-25T13:22:58;9.25;;;3.95;;
20855;SDS011;63058;49.424;8.420;2023-04-25T13:25:24;7.65;;;3.95;;
20855;SDS011;63058;49.424;8.420;2023-04-25T13:27:50;8.82;;;4.18;;
20855;SDS011;63058;49.424;8.420;2023-04-25T13:30:16;7.70;;;4.20;;
20855;SDS011;63058;49.424;8.420;2023-04-25T13:32:42;8.77;;;4.03;;
20855;SDS011;63058;49.424;8.420;2023-04-25T13:35:09;6.50;;;3.45;;
20855;SDS011;63058;49.424;8.420;2023-04-25T13:37:37;5.85;;;3.42;;
20855;SDS011;63058;49.424;8.420;2023-04-25T13:40:03;4.40;;;3.08;;
20855;SDS011;63058;49.424;8.420;2023-04-25T13:42:31;12.20;;;4.53;;
20855;SDS011;63058;49.424;8.420;2023-04-25T13:44:57;6.45;;;4.20;;
20855;SDS011;63058;49.424;8.420;2023-04-25T13:47:23;9.32;;;4.20;;
20855;SDS011;63058;49.424;8.420;2023-04-25T13:49:49;7.10;;;3.65;;
20855;SDS011;63058;49.424;8.420;2023-04-25T13:52:15;6.60;;;3.90;;
20855;SDS011;63058;49.424;8.420;2023-04-25T13:54:41;4.35;;;2.92;;
20855;SDS011;63058;49.424;8.420;2023-04-25T13:57:06;5.45;;;2.90;;
20855;SDS011;63058;49.424;8.420;2023-04-25T13:59:32;6.53;;;3.83;;
20855;SDS011;63058;49.424;8.420;2023-04-25T14:01:58;7.00;;;3.88;;
20855;SDS011;63058;49.424;8.420;2023-04-25T14:04:24;8.23;;;3.20;;
20855;SDS011;63058;49.424;8.420;2023-04-25T14:06:50;4.38;;;2.88;;
20855;SDS011;63058;49.424;8.420;2023-04-25T14:09:16;5.80;;;3.33;;
20855;SDS011;63058;49.424;8.420;2023-04-25T14:11:42;8.77;;;3.65;;
20855;SDS011;63058;49.424;8.420;2023-04-25T14:14:08;7.72;;;3.28;;
20855;SDS011;63058;49.424;8.420;2023-04-25T14:16:34;6.82;;;3.60;;
20855;SDS011;63058;49.424;8.420;2023-04-25T14:19:00;7.78;;;3.85;;
20855;SDS011;63058;49.424;8.420;2023-04-25T14:21:26;5.30;;;3.00;;
20855;SDS011;63058;49.424;8.420;2023-04-25T14:23:53;6.38;;;3.47;;
20855;SDS011;63058;49.424;8.420;2023-04-25T14:26:19;3.60;;;2.88;;
20855;SDS011;63058;49.424;8.420;2023-04-25T14:28:44;4.72;;;3.05;;
20855;SDS011;63058;49.424;8.420;2023-04-25T14:31:11;6.38;;;3.15;;
20855;SDS011;63058;49.424;8.420;2023-04-25T14:33:37;6.10;;;3.03;;
20855;SDS011;63058;49.424;8.420;2023-04-25T14:36:06;5.18;;;3.47;;
20855;SDS011;63058;49.424;8.420;2023-04-25T14:38:32;5.15;;;2.90;;
20855;SDS011;63058;49.424;8.420;2023-04-25T14:40:58;4.75;;;2.95;;
20855;SDS011;63058;49.424;8.420;2023-04-25T14:43:23;4.65;;;2.95;;
20855;SDS011;63058;49.424;8.420;2023-04-25T14:45:49;5.65;;;2.78;;
20855;SDS011;63058;49.424;8.420;2023-04-25T14:48:15;6.38;;;2.53;;
20855;SDS011;63058;49.424;8.420;2023-04-25T14:50:42;7.25;;;2.65;;
20855;SDS011;63058;49.424;8.420;2023-04-25T14:53:08;7.05;;;2.92;;
20855;SDS011;63058;49.424;8.420;2023-04-25T14:55:34;8.00;;;2.63;;
20855;SDS011;63058;49.424;8.420;2023-04-25T14:58:00;4.65;;;2.90;;